createdAt,value
2023-02-08T00:01:14.675Z,11.05
2023-02-08T00:03:46.133Z,11.23
2023-02-08T00:06:17.812Z,9.18
2023-02-08T00:08:49.034Z,11.32
2023-02-08T00:11:21.334Z,11.95
2023-02-08T00:13:52.496Z,12.05
2023-02-08T00:16:43.259Z,9.82
2023-02-08T00:19:14.193Z,11.95
2023-02-08T00:22:04.680Z,11.52
2023-02-08T00:27:22.683Z,10.85
2023-02-08T00:29:53.404Z,9.63
2023-02-08T00:32:24.582Z,11.18
2023-02-08T00:34:55.951Z,8.75
2023-02-08T00:37:26.552Z,10.90
2023-02-08T00:39:57.401Z,11.65
2023-02-08T00:42:29.153Z,11.10
2023-02-08T00:45:20.084Z,11.30
2023-02-08T00:47:51.227Z,10.95
2023-02-08T00:50:22.423Z,11.00
2023-02-08T00:52:53.607Z,9.73
2023-02-08T00:55:24.754Z,10.68
2023-02-08T00:57:55.662Z,11.98
2023-02-08T01:00:26.683Z,10.02
2023-02-08T01:02:58.608Z,11.68
2023-02-08T01:05:34.786Z,10.18
2023-02-08T01:08:26.838Z,10.55
2023-02-08T01:11:25.035Z,10.20
2023-02-08T01:14:01.808Z,11.73
2023-02-08T01:16:36.543Z,11.90
2023-02-08T01:19:07.756Z,11.00
2023-02-08T01:21:44.561Z,9.60
2023-02-08T01:24:15.626Z,9.50
2023-02-08T01:27:06.530Z,14.32
2023-02-08T01:29:38.920Z,12.40
2023-02-08T01:32:10.486Z,13.30
2023-02-08T01:34:45.054Z,13.35
2023-02-08T01:37:16.237Z,12.15
2023-02-08T01:39:47.428Z,13.70
2023-02-08T01:42:59.500Z,13.00
2023-02-08T01:45:33.639Z,13.13
2023-02-08T01:48:12.665Z,17.38
2023-02-08T01:50:52.477Z,13.20
2023-02-08T01:53:25.689Z,11.40
2023-02-08T01:56:08.511Z,14.15
2023-02-08T01:58:45.942Z,16.23
2023-02-08T02:01:18.058Z,16.35
2023-02-08T02:03:48.991Z,14.43
2023-02-08T02:06:24.886Z,14.63
2023-02-08T02:09:24.270Z,14.40
2023-02-08T02:11:56.819Z,14.55
2023-02-08T02:14:29.762Z,12.63
2023-02-08T02:17:02.972Z,14.13
2023-02-08T02:19:50.926Z,14.48
2023-02-08T02:22:39.432Z,13.85
2023-02-08T02:25:41.747Z,11.93
2023-02-08T02:28:54.898Z,12.77
2023-02-08T02:31:36.609Z,13.07
2023-02-08T02:34:29.777Z,13.68
2023-02-08T02:37:19.081Z,13.60
2023-02-08T02:40:23.287Z,14.55
2023-02-08T02:43:36.887Z,12.68
2023-02-08T02:46:40.130Z,12.45
2023-02-08T02:49:28.785Z,15.13
2023-02-08T02:52:13.627Z,13.80
2023-02-08T02:54:51.570Z,11.65
2023-02-08T02:57:30.847Z,12.10
2023-02-08T03:00:03.542Z,12.93
2023-02-08T03:02:57.098Z,11.45
2023-02-08T03:05:30.275Z,11.98
2023-02-08T03:08:23.451Z,12.30
2023-02-08T03:10:54.073Z,14.07
2023-02-08T03:13:30.617Z,10.85
2023-02-08T03:16:29.512Z,10.80
2023-02-08T03:19:44.879Z,10.80
2023-02-08T03:22:32.303Z,11.13
2023-02-08T03:25:34.186Z,11.52
2023-02-08T03:31:16.454Z,9.68
2023-02-08T03:34:33.927Z,10.48
2023-02-08T03:37:10.044Z,12.18
2023-02-08T03:39:43.265Z,10.85
2023-02-08T03:42:21.061Z,9.13
2023-02-08T03:45:00.669Z,10.00
2023-02-08T03:47:38.155Z,8.45
2023-02-08T03:50:17.124Z,8.48
2023-02-08T03:52:53.537Z,10.27
2023-02-08T03:55:28.022Z,10.90
2023-02-08T03:58:10.445Z,8.57
2023-02-08T04:01:05.906Z,9.82
2023-02-08T04:03:38.855Z,9.13
2023-02-08T04:06:09.662Z,10.35
2023-02-08T04:09:00.511Z,9.77
2023-02-08T04:11:31.466Z,8.23
2023-02-08T04:14:02.395Z,10.98
2023-02-08T04:16:33.423Z,9.32
2023-02-08T04:19:07.036Z,7.32
2023-02-08T04:21:39.580Z,9.48
2023-02-08T04:24:10.727Z,8.23
2023-02-08T04:26:41.787Z,9.23
2023-02-08T04:29:12.982Z,8.15
2023-02-08T04:31:45.481Z,10.60
2023-02-08T04:34:20.450Z,8.40
2023-02-08T04:36:51.737Z,7.30
2023-02-08T04:39:22.910Z,8.07
2023-02-08T04:41:54.121Z,7.80
2023-02-08T04:44:25.564Z,7.82
2023-02-08T04:47:16.440Z,7.25
2023-02-08T04:50:07.918Z,7.25
2023-02-08T04:52:39.563Z,8.30
2023-02-08T04:57:55.368Z,7.80
2023-02-08T05:00:26.392Z,8.85
2023-02-08T05:02:58.654Z,7.78
2023-02-08T05:05:30.152Z,6.90
2023-02-08T05:08:02.091Z,7.85
2023-02-08T05:10:33.414Z,6.40
2023-02-08T05:13:04.735Z,6.05
2023-02-08T05:15:38.042Z,7.38
2023-02-08T05:18:09.331Z,6.75
2023-02-08T05:20:47.277Z,7.35
2023-02-08T05:23:18.455Z,7.25
2023-02-08T05:25:49.594Z,9.40
2023-02-08T05:28:21.326Z,8.52
2023-02-08T05:30:52.818Z,8.48
2023-02-08T05:33:24.231Z,7.05
2023-02-08T05:35:55.524Z,7.18
2023-02-08T05:38:26.837Z,5.40
2023-02-08T05:40:57.909Z,7.13
2023-02-08T05:43:29.059Z,6.82
2023-02-08T05:46:25.143Z,6.28
2023-02-08T05:49:18.566Z,5.15
2023-02-08T05:51:51.704Z,5.60
2023-02-08T05:54:22.855Z,8.57
2023-02-08T05:56:55.979Z,5.60
2023-02-08T05:59:27.594Z,7.10
2023-02-08T06:04:44.648Z,5.57
2023-02-08T06:07:38.445Z,6.15
2023-02-08T06:10:13.294Z,7.82
2023-02-08T06:12:45.312Z,6.70
2023-02-08T06:15:16.755Z,8.30
2023-02-08T06:17:47.802Z,7.32
2023-02-08T06:20:19.069Z,10.75
2023-02-08T06:22:50.232Z,8.07
2023-02-08T06:25:21.368Z,7.25
2023-02-08T06:27:52.688Z,7.50
2023-02-08T06:30:24.052Z,6.93
2023-02-08T06:32:55.214Z,8.23
2023-02-08T06:35:26.394Z,7.70
2023-02-08T06:37:57.554Z,6.90
2023-02-08T06:40:28.946Z,5.75
2023-02-08T06:43:00.102Z,10.05
2023-02-08T06:45:31.219Z,7.93
2023-02-08T06:48:10.111Z,6.45
2023-02-08T06:53:25.281Z,7.47
2023-02-08T06:56:04.862Z,6.32
2023-02-08T07:01:29.529Z,6.15
2023-02-08T07:04:00.535Z,6.43
2023-02-08T07:06:31.715Z,7.22
2023-02-08T07:09:04.133Z,6.72
2023-02-08T07:11:35.248Z,6.20
2023-02-08T07:14:07.016Z,6.32
2023-02-08T07:16:38.305Z,7.28
2023-02-08T07:19:09.842Z,7.03
2023-02-08T07:21:41.115Z,6.55
2023-02-08T07:24:12.339Z,6.47
2023-02-08T07:27:04.569Z,6.28
2023-02-08T07:30:08.204Z,5.68
2023-02-08T07:32:39.323Z,6.78
2023-02-08T07:35:31.920Z,4.55
2023-02-08T07:38:03.214Z,5.50
2023-02-08T07:40:34.464Z,6.20
2023-02-08T07:43:05.660Z,6.32
2023-02-08T07:45:49.553Z,5.93
2023-02-08T07:48:20.584Z,4.88
2023-02-08T07:50:51.927Z,5.95
2023-02-08T07:53:23.155Z,6.43
2023-02-08T07:56:15.522Z,5.80
2023-02-08T07:58:47.193Z,6.03
2023-02-08T08:01:22.216Z,6.22
2023-02-08T08:03:54.780Z,5.63
2023-02-08T08:06:26.359Z,6.30
2023-02-08T08:08:57.654Z,4.88
2023-02-08T08:14:32.397Z,5.10
2023-02-08T08:17:05.452Z,4.53
2023-02-08T08:19:36.717Z,4.95
2023-02-08T08:22:07.873Z,5.80
2023-02-08T08:24:39.362Z,7.28
2023-02-08T08:27:13.157Z,5.97
2023-02-08T08:29:44.336Z,6.68
2023-02-08T08:32:16.385Z,4.25
2023-02-08T08:34:47.719Z,6.32
2023-02-08T08:37:37.663Z,5.43
2023-02-08T08:40:30.114Z,4.18
2023-02-08T08:43:01.465Z,8.75
2023-02-08T08:45:35.135Z,5.40
2023-02-08T08:48:29.137Z,7.28
2023-02-08T08:51:20.022Z,5.63
2023-02-08T08:53:51.132Z,4.45
2023-02-08T08:56:22.419Z,5.85
2023-02-08T08:58:53.725Z,5.22
2023-02-08T09:01:25.083Z,6.97
2023-02-08T09:04:16.426Z,7.50
2023-02-08T09:07:11.665Z,5.88
2023-02-08T09:09:44.216Z,5.72
2023-02-08T09:12:16.594Z,7.10
2023-02-08T09:15:10.520Z,10.60
2023-02-08T09:17:47.206Z,10.23
2023-02-08T09:20:18.553Z,10.02
2023-02-08T09:22:50.088Z,7.78
2023-02-08T09:25:21.306Z,9.27
2023-02-08T09:27:52.592Z,9.23
2023-02-08T09:30:25.551Z,9.18
2023-02-08T09:32:56.564Z,10.27
2023-02-08T09:35:49.735Z,7.70
2023-02-08T09:38:26.406Z,8.45
2023-02-08T09:41:03.450Z,8.32
2023-02-08T09:43:38.313Z,28.23
2023-02-08T09:46:24.766Z,10.40
2023-02-08T09:48:59.632Z,11.60
2023-02-08T09:51:47.210Z,13.70
2023-02-08T09:54:42.874Z,14.25
2023-02-08T09:57:46.076Z,12.13
2023-02-08T10:00:27.793Z,11.95
2023-02-08T10:03:05.630Z,11.40
2023-02-08T10:05:41.225Z,13.40
2023-02-08T10:08:15.013Z,9.68
2023-02-08T10:11:14.893Z,11.90
2023-02-08T10:14:16.100Z,10.50
2023-02-08T10:17:26.053Z,11.00
2023-02-08T10:20:07.297Z,11.43
2023-02-08T10:23:10.375Z,10.73
2023-02-08T10:28:51.354Z,11.57
2023-02-08T10:31:40.572Z,8.98
2023-02-08T10:35:01.156Z,10.40
2023-02-08T10:37:38.220Z,8.88
2023-02-08T10:40:40.110Z,7.78
2023-02-08T10:43:39.526Z,8.75
2023-02-08T10:46:54.681Z,8.85
2023-02-08T10:49:46.928Z,10.90
2023-02-08T10:52:18.214Z,10.02
2023-02-08T10:54:49.106Z,9.25
2023-02-08T10:57:37.033Z,10.18
2023-02-08T11:00:13.608Z,10.77
2023-02-08T11:02:45.668Z,10.57
2023-02-08T11:05:34.764Z,12.95
2023-02-08T11:08:48.293Z,11.27
2023-02-08T11:11:19.717Z,11.82
2023-02-08T11:14:17.561Z,12.00
2023-02-08T11:17:33.329Z,9.68
2023-02-08T11:20:04.651Z,10.85
2023-02-08T11:22:36.469Z,9.00
2023-02-08T11:25:30.279Z,7.95
2023-02-08T11:28:02.840Z,8.97
2023-02-08T11:30:35.105Z,8.70
2023-02-08T11:33:24.393Z,9.20
2023-02-08T11:36:14.799Z,9.45
2023-02-08T11:39:07.328Z,9.00
2023-02-08T11:41:38.840Z,8.52
2023-02-08T11:44:24.766Z,11.13
2023-02-08T11:47:24.858Z,10.73
2023-02-08T11:50:18.815Z,10.63
2023-02-08T11:53:02.628Z,8.52
2023-02-08T11:55:38.424Z,10.30
2023-02-08T11:58:16.873Z,11.85
2023-02-08T12:01:08.164Z,7.18
2023-02-08T12:03:42.091Z,10.20
2023-02-08T12:06:54.198Z,8.90
2023-02-08T12:10:01.746Z,10.90
2023-02-08T12:12:58.404Z,9.63
2023-02-08T12:15:58.919Z,7.60
2023-02-08T12:19:24.273Z,7.13
2023-02-08T12:22:08.647Z,9.75
2023-02-08T12:24:50.788Z,8.80
2023-02-08T12:27:45.286Z,9.30
2023-02-08T12:39:45.099Z,7.65
2023-02-08T12:42:53.084Z,8.20
2023-02-08T12:45:46.008Z,7.97
2023-02-08T12:48:20.359Z,7.78
2023-02-08T12:51:19.241Z,10.38
2023-02-08T12:53:59.162Z,7.97
2023-02-08T12:56:37.658Z,8.75
2023-02-08T12:59:35.371Z,9.88
2023-02-08T13:03:05.853Z,8.23
2023-02-08T13:05:50.751Z,9.30
2023-02-08T13:12:01.948Z,9.95
2023-02-08T13:14:44.813Z,7.35
2023-02-08T13:17:23.181Z,8.43
2023-02-08T13:20:31.418Z,6.18
2023-02-08T13:23:30.703Z,6.97
2023-02-08T13:26:35.447Z,7.22
2023-02-08T13:29:08.016Z,7.13
2023-02-08T13:31:48.465Z,7.18
2023-02-08T13:34:22.313Z,7.72
2023-02-08T13:37:01.035Z,8.05
2023-02-08T13:39:44.129Z,8.52
2023-02-08T13:42:46.975Z,8.48
2023-02-08T13:45:33.353Z,7.05
2023-02-08T13:48:16.600Z,6.90
2023-02-08T13:50:57.092Z,9.82
2023-02-08T13:53:43.588Z,7.63
2023-02-08T13:56:15.856Z,6.68
2023-02-08T13:59:20.028Z,7.13
2023-02-08T14:02:23.790Z,9.18
2023-02-08T14:08:25.957Z,8.43
2023-02-08T14:11:27.848Z,8.10
2023-02-08T14:14:20.271Z,7.47
2023-02-08T14:17:31.940Z,11.32
2023-02-08T14:20:07.691Z,7.50
2023-02-08T14:22:53.878Z,6.75
2023-02-08T14:25:40.768Z,6.80
2023-02-08T14:28:29.108Z,8.55
2023-02-08T14:31:03.323Z,7.25
2023-02-08T14:33:53.622Z,6.53
2023-02-08T14:37:00.431Z,7.18
2023-02-08T14:39:36.815Z,8.20
2023-02-08T14:45:58.218Z,5.65
2023-02-08T14:51:50.349Z,7.03
2023-02-08T14:54:42.006Z,8.35
2023-02-08T14:57:42.725Z,8.73
2023-02-08T15:00:31.595Z,7.32
2023-02-08T15:03:07.372Z,6.15
2023-02-08T15:05:48.741Z,5.85
2023-02-08T15:08:40.811Z,7.22
2023-02-08T15:11:34.384Z,6.07
2023-02-08T15:14:12.085Z,6.75
2023-02-08T15:16:48.498Z,6.70
2023-02-08T15:19:43.715Z,8.13
2023-02-08T15:22:34.066Z,6.18
2023-02-08T15:25:44.315Z,6.70
2023-02-08T15:28:41.331Z,6.20
2023-02-08T15:31:49.655Z,5.95
2023-02-08T15:34:47.273Z,6.75
2023-02-08T15:37:21.704Z,6.45
2023-02-08T15:39:59.299Z,6.55
2023-02-08T15:42:50.222Z,6.53
2023-02-08T15:45:33.054Z,5.85
2023-02-08T15:48:04.865Z,6.25
2023-02-08T15:50:37.621Z,6.28
2023-02-08T15:53:15.360Z,6.88
2023-02-08T15:55:57.431Z,6.20
2023-02-08T15:58:41.308Z,7.18
2023-02-08T16:01:21.814Z,5.97
2023-02-08T16:04:22.298Z,6.70
2023-02-08T16:06:57.405Z,5.60
2023-02-08T16:09:32.969Z,6.90
2023-02-08T16:12:04.407Z,5.60
2023-02-08T16:14:51.838Z,7.13
2023-02-08T16:17:47.910Z,5.72
2023-02-08T16:20:38.068Z,6.38
2023-02-08T16:23:28.537Z,5.93
2023-02-08T16:26:21.478Z,4.57
2023-02-08T16:29:01.478Z,6.25
2023-02-08T16:31:55.666Z,6.18
2023-02-08T16:34:27.101Z,6.22
2023-02-08T16:36:58.508Z,6.00
2023-02-08T16:42:47.295Z,6.00
2023-02-08T16:45:21.818Z,7.85
2023-02-08T16:48:13.438Z,6.93
2023-02-08T16:50:48.680Z,9.15
2023-02-08T16:53:19.776Z,6.22
2023-02-08T16:55:52.108Z,7.07
2023-02-08T16:58:24.848Z,5.47
2023-02-08T17:00:56.573Z,6.53
2023-02-08T17:03:31.044Z,4.78
2023-02-08T17:06:03.848Z,6.05
2023-02-08T17:08:54.485Z,5.95
2023-02-08T17:11:25.743Z,6.75
2023-02-08T17:13:57.096Z,4.88
2023-02-08T17:16:31.109Z,6.28
2023-02-08T17:21:33.551Z,4.40
2023-02-08T17:24:04.914Z,5.35
2023-02-08T17:26:41.594Z,6.20
2023-02-08T17:29:15.271Z,6.43
2023-02-08T17:31:47.292Z,6.20
2023-02-08T17:34:38.378Z,6.40
2023-02-08T17:37:10.362Z,5.35
2023-02-08T17:39:43.691Z,5.97
2023-02-08T17:42:14.722Z,5.57
2023-02-08T17:44:51.725Z,5.90
2023-02-08T17:47:22.753Z,5.55
2023-02-08T17:49:53.948Z,5.88
2023-02-08T17:52:25.075Z,5.25
2023-02-08T17:54:56.265Z,5.85
2023-02-08T17:57:40.135Z,5.47
2023-02-08T18:00:18.414Z,5.60
2023-02-08T18:02:53.593Z,5.47
2023-02-08T18:05:28.098Z,5.68
2023-02-08T18:07:59.720Z,5.00
2023-02-08T18:10:30.812Z,5.10
2023-02-08T18:13:01.664Z,5.15
2023-02-08T18:15:32.706Z,6.97
2023-02-08T18:18:05.216Z,7.30
2023-02-08T18:20:36.128Z,6.55
2023-02-08T18:23:26.921Z,4.90
2023-02-08T18:26:07.477Z,5.65
2023-02-08T18:28:38.887Z,6.88
2023-02-08T18:31:16.109Z,4.93
2023-02-08T18:33:47.524Z,5.18
2023-02-08T18:36:19.369Z,6.10
2023-02-08T18:38:52.839Z,4.43
2023-02-08T18:41:27.106Z,4.57
2023-02-08T18:44:00.190Z,5.72
2023-02-08T18:46:40.110Z,4.60
2023-02-08T18:49:19.653Z,4.13
2023-02-08T18:51:50.853Z,4.72
2023-02-08T18:54:47.331Z,5.05
2023-02-08T18:57:18.546Z,5.32
2023-02-08T18:59:55.697Z,5.13
2023-02-08T19:02:29.651Z,5.28
2023-02-08T19:05:00.320Z,5.53
2023-02-08T19:07:31.466Z,4.60
2023-02-08T19:10:02.860Z,5.45
2023-02-08T19:12:34.060Z,4.50
2023-02-08T19:15:05.171Z,5.25
2023-02-08T19:17:36.099Z,5.35
2023-02-08T19:20:07.469Z,4.47
2023-02-08T19:22:38.453Z,5.22
2023-02-08T19:25:09.742Z,4.60
2023-02-08T19:27:40.595Z,4.88
2023-02-08T19:30:18.495Z,5.03
2023-02-08T19:32:49.392Z,4.45
2023-02-08T19:35:21.054Z,4.18
2023-02-08T19:37:54.221Z,4.88
2023-02-08T19:40:30.308Z,4.70
2023-02-08T19:43:06.419Z,5.18
2023-02-08T19:45:37.665Z,4.32
2023-02-08T19:48:11.653Z,5.07
2023-02-08T19:50:44.251Z,5.13
2023-02-08T19:53:15.252Z,4.40
2023-02-08T19:55:46.200Z,4.03
2023-02-08T19:58:17.713Z,4.82
2023-02-08T20:00:48.916Z,4.25
2023-02-08T20:03:22.159Z,3.97
2023-02-08T20:05:59.263Z,4.80
2023-02-08T20:08:33.077Z,5.47
2023-02-08T20:11:03.815Z,4.38
2023-02-08T20:13:34.618Z,4.05
2023-02-08T20:16:05.428Z,4.20
2023-02-08T20:18:36.105Z,4.25
2023-02-08T20:23:52.940Z,3.88
2023-02-08T20:26:31.804Z,4.55
2023-02-08T20:29:02.686Z,4.82
2023-02-08T20:31:39.398Z,3.38
2023-02-08T20:34:12.786Z,4.50
2023-02-08T20:36:57.384Z,3.63
2023-02-08T20:39:33.276Z,4.47
2023-02-08T20:42:23.881Z,4.18
2023-02-08T20:45:06.647Z,3.60
2023-02-08T20:47:59.978Z,4.78
2023-02-08T20:50:33.336Z,4.75
2023-02-08T20:53:04.074Z,4.80
2023-02-08T20:55:34.838Z,5.18
2023-02-08T21:00:53.561Z,5.45
2023-02-08T21:03:25.037Z,4.13
2023-02-08T21:05:59.073Z,3.75
2023-02-08T21:08:37.892Z,4.47
2023-02-08T21:11:09.452Z,3.58
2023-02-08T21:13:41.206Z,3.63
2023-02-08T21:16:12.878Z,6.03
2023-02-08T21:18:53.530Z,4.15
2023-02-08T21:21:34.929Z,4.65
2023-02-08T21:24:06.289Z,5.45
2023-02-08T21:26:42.356Z,4.90
2023-02-08T21:29:14.071Z,5.15
2023-02-08T21:31:45.126Z,4.95
2023-02-08T21:34:19.585Z,5.28
2023-02-08T21:36:53.738Z,5.22
2023-02-08T21:39:30.527Z,5.18
2023-02-08T21:42:01.556Z,3.95
2023-02-08T21:44:36.194Z,5.05
2023-02-08T21:47:08.408Z,5.03
2023-02-08T21:49:57.487Z,4.75
2023-02-08T21:52:46.774Z,3.58
2023-02-08T21:55:17.946Z,5.07
2023-02-08T21:57:49.361Z,4.22
2023-02-08T22:00:23.704Z,3.92
2023-02-08T22:02:55.040Z,3.67
2023-02-08T22:06:06.268Z,4.13
2023-02-08T22:08:59.795Z,5.00
2023-02-08T22:11:30.749Z,4.35
2023-02-08T22:14:24.512Z,4.72
2023-02-08T22:16:55.569Z,4.23
2023-02-08T22:19:26.531Z,5.50
2023-02-08T22:21:57.443Z,6.10
2023-02-08T22:24:28.490Z,4.53
2023-02-08T22:27:19.495Z,5.60
2023-02-08T22:29:50.686Z,6.57
2023-02-08T22:32:22.051Z,5.75
2023-02-08T22:34:52.961Z,5.50
2023-02-08T22:37:27.563Z,4.75
2023-02-08T22:39:58.786Z,5.22
2023-02-08T22:42:30.960Z,4.28
2023-02-08T22:45:02.793Z,6.82
2023-02-08T22:47:37.213Z,4.65
2023-02-08T22:50:09.804Z,4.45
2023-02-08T22:52:40.684Z,4.80
2023-02-08T22:55:11.524Z,5.75
2023-02-08T22:57:44.650Z,4.00
2023-02-08T23:00:17.214Z,4.70
2023-02-08T23:02:47.947Z,4.28
2023-02-08T23:05:20.201Z,5.13
2023-02-08T23:07:51.186Z,5.53
2023-02-08T23:10:24.982Z,4.25
2023-02-08T23:12:55.979Z,4.80
2023-02-08T23:15:26.644Z,4.85
2023-02-08T23:18:26.743Z,4.90
2023-02-08T23:21:01.794Z,4.55
2023-02-08T23:23:32.791Z,6.45
2023-02-08T23:26:07.422Z,5.15
2023-02-08T23:28:38.799Z,4.63
2023-02-08T23:31:14.162Z,5.43
2023-02-08T23:33:45.285Z,4.75
2023-02-08T23:36:18.580Z,4.05
2023-02-08T23:39:17.700Z,4.75
2023-02-08T23:41:50.579Z,4.95
2023-02-08T23:44:24.899Z,4.00
2023-02-08T23:46:55.600Z,5.28
2023-02-08T23:49:26.327Z,3.88
2023-02-08T23:54:43.772Z,5.25
2023-02-08T23:57:18.186Z,5.68
2023-02-08T23:59:49.357Z,4.70
